Terminal Aerodrome Forecast
Issued by NWS

Home | Current Version | Previous Version | Text Only | Print | Product List | Glossary On
Versions: 1 2 3 4 5 6 7 8 9 10 11 12 13 14 15
000
FTUS41 KBOX 171726
TAFHYA
TAF
KHYA 171726Z 1718/1818 32010KT P6SM FEW250
     FM180900 00000KT P6SM OVC040
     FM181200 00000KT P6SM -SHSN OVC035
     FM181400 VRB04KT P6SM OVC025=

USA.gov is the U.S. government's official web portal to all federal, state and local government web resources and services.